Time;durP1;ratioP1;P1;durP2;ratioP2;P2;SDS_P1;SDS_P2;PMS_P1;PMS_P2;Temp;Humidity;BMP_temperature;BMP_pressure;BME280_temperature;BME280_humidity;BME280_pressure;Samples;Min_cycle;Max_cycle;Signal;HPM_P1;HPM_P2
2021/09/09 00:01:35;;;;;;;15.82;11.95;;;;;;;15.27;62.01;100670.09;4877694;28;127115;-62
2021/09/09 00:04:01;;;;;;;12.15;10.35;;;;;;;15.23;62.25;100675.31;4889217;28;100251;-63
2021/09/09 00:06:27;;;;;;;13.20;11.07;;;;;;;15.17;62.05;100674.59;4880655;28;98411;-60
2021/09/09 00:08:53;;;;;;;11.77;10.55;;;;;;;15.14;62.15;100675.16;4875968;28;122532;-59
2021/09/09 00:11:19;;;;;;;12.35;11.05;;;;;;;15.12;62.46;100674.63;4878459;28;104336;-62
2021/09/09 00:13:46;;;;;;;12.50;11.30;;;;;;;15.09;62.51;100679.84;4877785;28;127832;-62
2021/09/09 00:16:12;;;;;;;12.57;11.38;;;;;;;15.07;62.46;100673.91;4878299;28;103148;-63
2021/09/09 00:18:38;;;;;;;14.65;11.50;;;;;;;15.04;62.39;100669.84;4877488;28;111632;-60
2021/09/09 00:21:04;;;;;;;14.30;11.13;;;;;;;15.00;62.48;100668.81;4877955;28;118325;-59
2021/09/09 00:23:31;;;;;;;12.98;11.57;;;;;;;14.99;62.14;100669.94;4877783;28;113109;-62
2021/09/09 00:25:57;;;;;;;13.85;11.13;;;;;;;14.95;62.38;100667.00;4895540;28;98085;-62
2021/09/09 00:28:23;;;;;;;13.55;12.07;;;;;;;14.91;62.41;100665.16;4880103;28;121409;-59
2021/09/09 00:30:51;;;;;;;12.50;11.20;;;;;;;14.86;62.64;100660.59;4889702;28;107604;-62
2021/09/09 00:33:18;;;;;;;12.13;10.82;;;;;;;14.84;62.48;100661.97;4895649;28;98858;-63
2021/09/09 00:35:44;;;;;;;12.75;11.23;;;;;;;14.80;62.63;100663.66;4894472;28;116659;-60
2021/09/09 00:38:10;;;;;;;12.57;10.95;;;;;;;14.76;62.33;100663.44;4878686;28;98009;-62
2021/09/09 00:40:36;;;;;;;15.90;11.80;;;;;;;14.73;62.60;100662.09;4876911;28;127027;-62
2021/09/09 00:43:03;;;;;;;12.82;11.07;;;;;;;14.72;62.74;100659.69;4877244;28;103460;-62
2021/09/09 00:45:29;;;;;;;14.77;11.35;;;;;;;14.70;62.88;100653.75;4875281;28;128100;-62
2021/09/09 00:47:55;;;;;;;12.40;10.43;;;;;;;14.68;62.36;100654.03;4877938;28;124064;-62
2021/09/09 00:50:21;;;;;;;12.25;11.02;;;;;;;14.66;62.63;100650.81;4877351;28;127955;-60
2021/09/09 00:52:49;;;;;;;13.20;10.50;;;;;;;14.67;62.94;100655.13;4877689;28;98877;-60
2021/09/09 00:55:15;;;;;;;13.38;10.75;;;;;;;14.64;62.69;100658.41;4877652;28;97871;-60
2021/09/09 00:57:42;;;;;;;14.30;12.10;;;;;;;14.61;62.22;100655.47;4877271;28;122585;-60
2021/09/09 01:00:09;;;;;;;12.18;10.40;;;;;;;14.56;62.43;100653.63;4873615;28;100523;-60
2021/09/09 01:02:35;;;;;;;13.32;11.10;;;;;;;14.54;62.63;100649.59;4878566;28;106637;-62
2021/09/09 01:05:01;;;;;;;15.73;11.20;;;;;;;14.51;62.40;100648.28;4876865;28;113370;-62
2021/09/09 01:07:27;;;;;;;13.48;11.10;;;;;;;14.49;62.86;100653.16;4876934;28;122549;-62
2021/09/09 01:09:53;;;;;;;12.13;10.45;;;;;;;14.45;62.55;100649.38;4878116;28;127823;-60
2021/09/09 01:12:20;;;;;;;11.68;10.48;;;;;;;14.44;62.74;100651.31;4878568;28;127633;-62
2021/09/09 01:14:46;;;;;;;12.07;10.80;;;;;;;14.41;62.95;100649.16;4877423;28;127488;-60
2021/09/09 01:17:12;;;;;;;13.95;10.52;;;;;;;14.37;62.64;100656.25;4877117;28;103056;-60
2021/09/09 01:19:38;;;;;;;11.70;10.50;;;;;;;14.33;62.83;100657.13;4876205;28;128122;-60
2021/09/09 01:22:04;;;;;;;11.60;10.10;;;;;;;14.32;62.79;100663.66;4876476;28;127198;-60
2021/09/09 01:24:30;;;;;;;13.98;11.07;;;;;;;14.25;63.06;100664.78;4876851;28;127030;-62
2021/09/09 01:27:00;;;;;;;12.07;10.50;;;;;;;14.21;62.54;100663.75;4877864;28;98059;-62
2021/09/09 01:29:33;;;;;;;13.48;10.43;;;;;;;14.13;62.52;100664.38;4877624;28;98185;-62
2021/09/09 01:31:59;;;;;;;;;;;;;;;14.03;62.42;100660.94;4877666;28;108506;-62
2021/09/09 01:34:25;;;;;;;11.55;10.13;;;;;;;13.98;62.94;100661.78;4877136;28;98337;-60
2021/09/09 01:36:52;;;;;;;12.90;11.32;;;;;;;13.95;63.28;100654.22;4881417;28;98064;-62
2021/09/09 01:39:18;;;;;;;11.35;10.25;;;;;;;13.90;63.21;100649.66;4876044;28;117255;-62
2021/09/09 01:41:44;;;;;;;14.88;10.85;;;;;;;13.86;63.55;100661.38;4876085;28;98735;-62
2021/09/09 01:44:10;;;;;;;14.48;10.32;;;;;;;13.74;63.49;100654.41;4878334;28;98008;-62
2021/09/09 01:46:36;;;;;;;12.65;10.50;;;;;;;13.67;63.44;100656.63;4877239;28;98224;-60
2021/09/09 01:49:03;;;;;;;12.48;10.23;;;;;;;13.59;63.48;100649.13;4876560;28;127717;-62
2021/09/09 01:51:29;;;;;;;11.75;10.40;;;;;;;13.53;63.70;100652.97;4876316;28;128235;-60
2021/09/09 01:53:55;;;;;;;11.80;10.52;;;;;;;13.45;63.78;100654.38;4877882;28;127917;-59
2021/09/09 01:56:22;;;;;;;14.35;10.43;;;;;;;13.42;63.98;100656.84;4880527;28;98081;-62
2021/09/09 01:58:48;;;;;;;11.52;10.30;;;;;;;13.37;64.03;100665.81;4891758;28;98802;-62
2021/09/09 02:01:14;;;;;;;12.38;10.38;;;;;;;13.34;64.04;100665.56;4880319;28;98657;-62
2021/09/09 02:03:40;;;;;;;11.25;10.05;;;;;;;13.31;64.07;100658.78;4882304;28;98042;-60
2021/09/09 02:06:06;;;;;;;11.85;10.65;;;;;;;13.31;64.11;100658.00;4880773;28;97907;-60
2021/09/09 02:08:32;;;;;;;12.13;10.88;;;;;;;13.29;63.96;100657.47;4878258;28;126681;-60
2021/09/09 02:10:58;;;;;;;14.55;9.68;;;;;;;13.24;64.22;100648.31;4880744;28;98401;-62
2021/09/09 02:13:24;;;;;;;11.57;10.38;;;;;;;13.24;64.15;100647.47;4889270;28;127664;-62
2021/09/09 02:15:50;;;;;;;11.50;10.30;;;;;;;13.19;64.49;100642.88;4895936;28;99841;-62
2021/09/09 02:18:16;;;;;;;11.60;10.32;;;;;;;13.21;64.46;100642.59;4879083;28;128329;-59
2021/09/09 02:20:42;;;;;;;12.50;10.43;;;;;;;13.20;64.70;100646.38;4877463;28;127768;-59
2021/09/09 02:23:08;;;;;;;11.50;10.27;;;;;;;13.15;64.29;100639.09;4879068;28;127898;-63
2021/09/09 02:25:34;;;;;;;11.27;10.18;;;;;;;13.13;64.43;100640.50;4888544;28;123390;-60
2021/09/09 02:28:00;;;;;;;12.85;10.57;;;;;;;13.07;64.59;100633.47;4879361;28;108003;-59
2021/09/09 02:30:26;;;;;;;11.20;10.10;;;;;;;13.01;64.80;100633.50;4878178;28;113728;-62
2021/09/09 02:32:54;;;;;;;14.35;10.80;;;;;;;13.01;64.74;100633.50;4884828;28;127123;-62
2021/09/09 02:35:20;;;;;;;12.88;10.32;;;;;;;12.98;64.73;100639.47;4878758;28;120798;-59
2021/09/09 02:37:46;;;;;;;11.13;9.95;;;;;;;12.95;64.76;100640.03;4879538;28;117295;-59
2021/09/09 02:40:12;;;;;;;11.50;9.77;;;;;;;12.96;64.96;100633.53;4879485;28;109499;-60
2021/09/09 02:42:39;;;;;;;12.38;10.02;;;;;;;12.98;64.82;100630.56;4878002;28;98156;-59
2021/09/09 02:45:06;;;;;;;14.40;10.05;;;;;;;12.99;64.86;100627.56;4879868;28;97741;-60
2021/09/09 02:47:32;;;;;;;11.23;9.93;;;;;;;13.03;64.91;100625.91;4879191;28;107330;-59
2021/09/09 02:49:58;;;;;;;11.05;9.90;;;;;;;13.05;65.48;100622.09;4879366;28;123851;-60
2021/09/09 02:52:24;;;;;;;11.77;10.45;;;;;;;13.07;65.08;100628.88;4879454;28;98029;-62
2021/09/09 02:54:50;;;;;;;12.52;10.65;;;;;;;13.07;64.93;100625.34;4878114;28;123648;-62
2021/09/09 02:57:16;;;;;;;11.60;10.38;;;;;;;13.10;65.04;100625.59;4878359;28;127101;-59
2021/09/09 02:59:42;;;;;;;11.73;10.48;;;;;;;13.11;64.89;100623.72;4888638;28;126663;-62
2021/09/09 03:02:08;;;;;;;11.80;9.85;;;;;;;13.11;64.99;100624.50;4876713;28;128439;-60
2021/09/09 03:04:34;;;;;;;12.25;10.20;;;;;;;13.11;64.75;100619.09;4878098;28;122850;-62
2021/09/09 03:07:00;;;;;;;11.43;9.88;;;;;;;13.13;64.77;100611.53;4877925;28;128660;-62
2021/09/09 03:09:26;;;;;;;14.07;10.95;;;;;;;13.13;64.80;100614.22;4878585;28;126806;-62
2021/09/09 03:11:53;;;;;;;11.73;10.50;;;;;;;13.11;64.92;100602.88;4877879;28;127176;-62
2021/09/09 03:14:19;;;;;;;12.00;10.18;;;;;;;13.12;64.64;100607.19;4878541;28;122865;-60
2021/09/09 03:16:45;;;;;;;11.40;9.82;;;;;;;13.14;65.01;100604.22;4878957;28;109750;-62
2021/09/09 03:19:11;;;;;;;13.55;9.95;;;;;;;13.15;64.60;100603.91;4877468;28;113771;-59
2021/09/09 03:21:37;;;;;;;12.20;10.00;;;;;;;13.16;64.78;100604.72;4878705;28;127691;-63
2021/09/09 03:24:03;;;;;;;13.25;10.65;;;;;;;13.16;64.62;100607.44;4885495;28;122601;-62
2021/09/09 03:26:29;;;;;;;11.48;10.23;;;;;;;13.12;64.78;100606.38;4878398;28;113176;-60
2021/09/09 03:28:55;;;;;;;15.82;10.05;;;;;;;13.12;64.67;100604.47;4880482;28;117093;-62
2021/09/09 03:31:21;;;;;;;13.25;10.80;;;;;;;13.08;64.73;100616.94;4885939;28;128185;-59
2021/09/09 03:33:47;;;;;;;11.93;10.65;;;;;;;13.06;64.67;100602.91;4879289;28;122599;-62
2021/09/09 03:36:13;;;;;;;12.23;10.43;;;;;;;13.02;64.79;100599.94;4877858;28;128153;-62
2021/09/09 03:38:39;;;;;;;12.98;11.35;;;;;;;12.97;64.79;100613.50;4884870;28;127848;-63
2021/09/09 03:41:05;;;;;;;14.07;11.15;;;;;;;12.92;65.11;100602.69;4877819;28;127721;-60
2021/09/09 03:43:31;;;;;;;12.77;10.70;;;;;;;12.90;65.35;100606.78;4885265;28;121908;-59
2021/09/09 03:45:57;;;;;;;11.88;10.68;;;;;;;12.89;65.23;100610.56;4862965;28;126979;-62
2021/09/09 03:48:24;;;;;;;13.05;10.55;;;;;;;12.89;65.45;100599.75;4867441;28;113933;-59
2021/09/09 03:50:50;;;;;;;12.90;10.70;;;;;;;12.87;65.32;100600.03;4890387;28;126506;-60
2021/09/09 03:53:16;;;;;;;11.75;10.13;;;;;;;12.84;65.39;100600.59;4879705;28;123235;-62
2021/09/09 03:55:42;;;;;;;12.68;11.02;;;;;;;12.82;65.50;100599.25;4878159;28;128012;-62
2021/09/09 03:58:08;;;;;;;11.38;10.18;;;;;;;12.82;65.44;100588.44;4876764;28;129107;-59
2021/09/09 04:00:34;;;;;;;10.93;9.82;;;;;;;12.82;65.50;100596.56;4878094;28;98052;-59
2021/09/09 04:03:02;;;;;;;11.82;10.63;;;;;;;12.82;65.00;100591.97;4875813;28;121680;-59
2021/09/09 04:05:29;;;;;;;11.38;10.18;;;;;;;12.82;65.20;100596.56;4878852;28;99420;-59
2021/09/09 04:07:55;;;;;;;15.70;11.32;;;;;;;12.81;64.68;100593.06;4877950;28;99274;-60
2021/09/09 04:10:21;;;;;;;11.70;10.07;;;;;;;12.78;64.96;100597.13;4878554;28;97958;-60
2021/09/09 04:12:47;;;;;;;11.60;9.88;;;;;;;12.76;64.84;100588.44;4877891;28;122775;-60
2021/09/09 04:15:13;;;;;;;12.27;10.13;;;;;;;12.75;65.31;100600.38;4876844;28;128460;-59
2021/09/09 04:17:40;;;;;;;13.00;10.85;;;;;;;12.75;65.51;100588.75;4875467;28;127829;-62
2021/09/09 04:20:06;;;;;;;12.68;10.60;;;;;;;12.74;65.02;100582.53;4877869;28;98577;-64
2021/09/09 04:22:33;;;;;;;11.25;9.80;;;;;;;12.74;65.66;100590.63;4878260;28;98068;-60
2021/09/09 04:25:00;;;;;;;12.30;10.90;;;;;;;12.73;65.14;100580.91;4877959;28;99635;-59
2021/09/09 04:27:26;;;;;;;11.88;10.02;;;;;;;12.71;64.83;100584.97;4878213;28;98499;-62
2021/09/09 04:29:52;;;;;;;12.68;9.85;;;;;;;12.68;65.08;100586.34;4878248;28;97963;-59
2021/09/09 04:32:18;;;;;;;13.45;10.80;;;;;;;12.67;65.33;100573.91;4877148;28;123448;-62
2021/09/09 04:34:45;;;;;;;15.27;10.43;;;;;;;12.68;65.40;100575.50;4875372;28;128054;-60
2021/09/09 04:37:11;;;;;;;15.52;10.57;;;;;;;12.69;65.32;100570.91;4890653;28;126953;-60
2021/09/09 04:39:37;;;;;;;12.50;10.90;;;;;;;12.69;65.23;100573.63;4875892;28;108472;-62
2021/09/09 04:42:03;;;;;;;13.70;10.50;;;;;;;12.69;65.07;100568.22;4878581;28;98291;-61
2021/09/09 04:44:29;;;;;;;13.73;10.88;;;;;;;12.65;65.31;100565.25;4876726;28;111335;-60
2021/09/09 04:46:55;;;;;;;14.35;10.48;;;;;;;12.63;64.97;100564.72;4877639;28;99118;-62
2021/09/09 04:49:21;;;;;;;13.63;10.23;;;;;;;12.63;65.12;100561.22;4884331;28;105643;-62
2021/09/09 04:51:47;;;;;;;15.98;10.45;;;;;;;12.61;65.30;100569.59;4877123;28;122851;-60
2021/09/09 04:54:13;;;;;;;12.02;9.88;;;;;;;12.60;65.32;100567.19;4877217;28;127752;-59
2021/09/09 04:56:39;;;;;;;11.68;10.15;;;;;;;12.56;65.09;100568.81;4876742;28;129211;-62
2021/09/09 04:59:05;;;;;;;14.45;10.18;;;;;;;12.58;65.08;100570.19;4877711;28;98391;-62
2021/09/09 05:01:31;;;;;;;11.93;10.00;;;;;;;12.56;65.41;100560.72;4877000;28;123765;-59
2021/09/09 05:03:57;;;;;;;13.52;10.05;;;;;;;12.58;65.22;100556.66;4876712;28;128971;-62
2021/09/09 05:06:23;;;;;;;14.65;9.98;;;;;;;12.65;65.13;100562.53;4876995;28;128038;-59
2021/09/09 05:08:49;;;;;;;11.70;9.95;;;;;;;12.70;65.16;100548.22;4877405;28;127269;-59
2021/09/09 05:11:17;;;;;;;12.35;9.90;;;;;;;12.73;65.02;100561.16;4877802;28;97863;-60
2021/09/09 05:13:44;;;;;;;10.35;9.30;;;;;;;12.80;65.15;100548.13;4877545;28;98825;-61
2021/09/09 05:16:10;;;;;;;10.90;9.65;;;;;;;12.87;64.62;100545.13;4877708;28;98716;-59
2021/09/09 05:18:36;;;;;;;11.15;9.70;;;;;;;12.95;64.50;100544.53;4877121;28;115089;-59
2021/09/09 05:21:02;;;;;;;10.75;9.65;;;;;;;13.04;64.57;100537.41;4877135;28;103834;-59
2021/09/09 05:23:28;;;;;;;12.00;9.95;;;;;;;13.12;64.40;100544.13;4877079;28;117322;-62
2021/09/09 05:25:54;;;;;;;12.63;10.02;;;;;;;13.17;64.31;100538.69;4859334;28;128595;-61
2021/09/09 05:28:20;;;;;;;12.95;9.73;;;;;;;13.24;64.32;100536.47;4876510;28;125801;-59
2021/09/09 05:30:46;;;;;;;11.13;9.80;;;;;;;13.33;64.27;100534.00;4881356;28;123382;-61
2021/09/09 05:33:13;;;;;;;12.45;9.68;;;;;;;13.45;64.17;100537.13;4880868;28;125050;-62
2021/09/09 05:35:40;;;;;;;11.45;9.02;;;;;;;13.55;64.11;100523.50;4879891;28;99384;-61
2021/09/09 05:38:08;;;;;;;10.88;9.13;;;;;;;13.68;63.78;100522.03;4893302;28;98254;-62
2021/09/09 05:40:34;;;;;;;11.95;9.18;;;;;;;13.77;63.74;100523.00;4881696;28;105218;-59
2021/09/09 05:43:00;;;;;;;10.35;8.70;;;;;;;13.87;63.58;100528.34;4880333;28;99433;-62
2021/09/09 05:45:26;;;;;;;11.00;9.15;;;;;;;13.97;63.35;100525.50;4880192;28;112853;-61
2021/09/09 05:47:52;;;;;;;11.20;9.13;;;;;;;14.07;63.40;100527.28;4879498;28;129088;-60
2021/09/09 05:50:18;;;;;;;13.88;8.68;;;;;;;14.17;63.08;100531.78;4879505;28;123066;-62
2021/09/09 05:52:45;;;;;;;10.40;8.80;;;;;;;14.25;62.65;100528.41;4880760;28;127833;-59
2021/09/09 05:55:11;;;;;;;10.32;9.23;;;;;;;14.36;63.07;100521.78;4880902;28;105355;-62
2021/09/09 05:57:38;;;;;;;11.50;9.13;;;;;;;14.46;62.63;100526.25;4879912;28;106547;-59
2021/09/09 06:00:05;;;;;;;9.95;8.68;;;;;;;14.58;62.49;100520.41;4878458;28;107875;-59
2021/09/09 06:02:31;;;;;;;8.88;8.05;;;;;;;14.69;61.92;100525.41;4878558;28;107594;-62
2021/09/09 06:04:59;;;;;;;10.00;7.70;;;;;;;14.82;61.97;100521.19;4879439;28;100093;-59
2021/09/09 06:07:27;;;;;;;10.88;7.55;;;;;;;14.96;61.83;100524.75;4891228;28;98331;-62
2021/09/09 06:09:53;;;;;;;10.35;8.05;;;;;;;15.11;61.41;100531.06;4882133;28;98112;-59
2021/09/09 06:12:25;;;;;;;9.23;7.90;;;;;;;15.23;60.98;100528.69;4880303;28;99308;-60
2021/09/09 06:14:52;;;;;;;10.15;7.57;;;;;;;15.37;60.84;100532.25;4880857;28;98491;-62
2021/09/09 06:17:18;;;;;;;10.23;8.02;;;;;;;15.51;60.73;100524.13;4879513;28;113737;-62
2021/09/09 06:19:44;;;;;;;11.27;7.88;;;;;;;15.65;60.52;100524.19;4879592;28;122647;-59
2021/09/09 06:22:10;;;;;;;11.90;8.27;;;;;;;15.79;59.93;100522.28;4886808;28;127392;-62
2021/09/09 06:24:36;;;;;;;12.90;7.88;;;;;;;15.90;60.18;100512.84;4882297;28;128708;-62
2021/09/09 06:27:02;;;;;;;10.55;7.88;;;;;;;16.04;59.79;100523.72;4878484;28;127032;-61
2021/09/09 06:29:28;;;;;;;11.55;7.43;;;;;;;16.17;59.70;100524.81;4883154;28;108593;-62
2021/09/09 06:31:54;;;;;;;11.73;7.70;;;;;;;16.31;59.35;100522.06;4879102;28;126069;-62
2021/09/09 06:34:20;;;;;;;10.07;7.78;;;;;;;16.44;59.77;100527.50;4878471;28;128039;-62
2021/09/09 06:36:46;;;;;;;8.57;6.78;;;;;;;16.60;59.55;100535.34;4880288;28;98288;-62
2021/09/09 06:39:14;;;;;;;9.45;6.78;;;;;;;16.76;59.36;100525.75;4879926;28;122301;-62
2021/09/09 06:41:45;;;;;;;9.85;6.80;;;;;;;17.14;58.49;100517.25;4879673;28;98891;-62
2021/09/09 06:44:12;;;;;;;8.63;6.43;;;;;;;17.51;57.68;100517.94;4879783;28;98356;-60
2021/09/09 06:46:39;;;;;;;8.20;6.18;;;;;;;17.58;57.56;100510.94;4877662;28;98199;-60
2021/09/09 06:49:05;;;;;;;8.07;6.07;;;;;;;17.68;57.41;100515.31;4880429;28;98730;-60
2021/09/09 06:51:32;;;;;;;7.63;6.30;;;;;;;17.76;57.20;100517.28;4879111;28;110206;-59
2021/09/09 06:53:58;;;;;;;7.70;5.57;;;;;;;17.83;57.03;100522.28;4880239;28;98070;-60
2021/09/09 06:56:25;;;;;;;10.00;5.28;;;;;;;17.90;56.83;100522.66;4879329;28;98022;-61
2021/09/09 06:58:51;;;;;;;7.32;5.53;;;;;;;17.98;57.00;100521.88;4886503;28;99316;-62
2021/09/09 07:01:17;;;;;;;7.90;5.80;;;;;;;18.04;56.80;100519.84;4881226;28;108058;-60
2021/09/09 07:03:43;;;;;;;7.35;5.25;;;;;;;18.12;56.60;100521.78;4878006;28;128162;-62
2021/09/09 07:06:10;;;;;;;6.70;5.30;;;;;;;18.19;56.43;100521.28;4878940;28;98491;-62
2021/09/09 07:08:36;;;;;;;5.88;5.28;;;;;;;18.26;55.51;100513.47;4878440;28;122721;-61
2021/09/09 07:11:02;;;;;;;7.38;4.57;;;;;;;18.33;55.35;100516.53;4891579;28;125804;-60
2021/09/09 07:13:31;;;;;;;6.13;4.85;;;;;;;18.39;55.39;100517.97;4878185;28;115324;-62
2021/09/09 07:15:58;;;;;;;5.57;4.80;;;;;;;18.49;55.27;100520.41;4878848;28;98494;-62
2021/09/09 07:18:25;;;;;;;7.53;4.43;;;;;;;18.57;54.71;100518.81;4878977;28;98136;-60
2021/09/09 07:20:52;;;;;;;6.32;4.55;;;;;;;18.70;54.54;100523.34;4880551;28;98879;-60
2021/09/09 07:23:18;;;;;;;7.38;4.75;;;;;;;18.80;54.25;100512.13;4883865;28;98676;-61
2021/09/09 07:25:44;;;;;;;8.70;4.15;;;;;;;18.95;53.98;100504.56;4879280;28;98056;-61
2021/09/09 07:28:10;;;;;;;6.18;3.83;;;;;;;19.10;53.89;100509.53;4884948;28;98195;-60
2021/09/09 07:30:36;;;;;;;5.35;4.18;;;;;;;19.24;53.31;100503.88;4881650;28;99890;-62
2021/09/09 07:33:03;;;;;;;5.63;4.22;;;;;;;19.41;52.87;100503.81;4880044;28;98522;-62
2021/09/09 07:35:30;;;;;;;7.35;4.43;;;;;;;19.57;52.66;100504.94;4889685;28;126660;-62
2021/09/09 07:37:56;;;;;;;6.95;4.20;;;;;;;19.77;51.98;100499.91;4880497;28;112474;-62
2021/09/09 07:40:22;;;;;;;5.60;3.83;;;;;;;19.98;51.97;100500.75;4878138;28;126732;-61
2021/09/09 07:42:48;;;;;;;5.57;3.88;;;;;;;20.23;51.49;100503.69;4879462;28;115096;-62
2021/09/09 07:45:14;;;;;;;4.72;3.70;;;;;;;20.49;51.30;100500.81;4877623;28;128011;-61
2021/09/09 07:47:40;;;;;;;5.90;3.65;;;;;;;20.75;50.21;100509.66;4883725;28;123283;-60
2021/09/09 07:50:08;;;;;;;4.90;3.47;;;;;;;21.04;49.44;100500.50;4881800;28;127097;-60
2021/09/09 07:52:35;;;;;;;6.93;3.85;;;;;;;21.36;48.72;100502.81;4878019;28;98287;-62
2021/09/09 07:55:01;;;;;;;6.40;3.60;;;;;;;21.70;47.88;100507.13;4879568;28;111371;-62
2021/09/09 07:57:27;;;;;;;6.88;3.63;;;;;;;22.11;47.27;100506.09;4882644;28;109713;-60
2021/09/09 07:59:53;;;;;;;4.72;3.40;;;;;;;22.52;45.20;100513.28;4880862;28;105020;-63
2021/09/09 08:02:19;;;;;;;5.97;3.53;;;;;;;23.04;45.36;100508.91;4879240;28;128452;-62
2021/09/09 08:04:45;;;;;;;5.63;3.50;;;;;;;23.52;43.96;100513.34;4877839;28;126113;-60
2021/09/09 08:07:11;;;;;;;4.53;3.42;;;;;;;24.02;43.48;100515.78;4878070;28;108532;-60
2021/09/09 08:09:37;;;;;;;4.80;3.45;;;;;;;24.49;41.54;100516.50;4877852;28;120151;-62
2021/09/09 08:12:04;;;;;;;5.63;3.22;;;;;;;24.97;41.24;100508.03;4878231;28;126691;-62
2021/09/09 08:14:30;;;;;;;6.28;3.25;;;;;;;25.50;40.23;100505.50;4893894;28;98420;-60
2021/09/09 08:16:57;;;;;;;4.65;3.17;;;;;;;26.04;39.32;100509.19;4883374;28;101289;-62
2021/09/09 08:19:23;;;;;;;4.88;3.28;;;;;;;26.59;38.87;100504.06;4876473;28;98169;-60
2021/09/09 08:21:49;;;;;;;6.65;3.70;;;;;;;27.11;37.58;100503.13;4878532;28;98585;-62
2021/09/09 08:24:15;;;;;;;5.25;3.40;;;;;;;27.57;36.36;100508.34;4878627;28;126783;-60
2021/09/09 08:26:41;;;;;;;4.60;3.10;;;;;;;28.01;35.87;100498.44;4877954;28;98105;-63
2021/09/09 08:29:07;;;;;;;6.60;3.47;;;;;;;28.50;35.26;100513.81;4877446;28;125889;-62
2021/09/09 08:31:33;;;;;;;5.03;3.38;;;;;;;28.89;33.67;100515.97;4877226;28;128841;-63
2021/09/09 08:33:59;;;;;;;4.72;3.03;;;;;;;29.25;32.67;100512.16;4888584;28;126533;-60
2021/09/09 08:36:25;;;;;;;6.82;3.33;;;;;;;29.75;32.50;100516.97;4877795;28;121685;-62
2021/09/09 08:38:51;;;;;;;5.35;2.90;;;;;;;30.09;30.99;100518.13;4889107;28;98613;-63
2021/09/09 08:41:18;;;;;;;3.47;3.00;;;;;;;30.48;30.84;100510.94;4894305;28;98765;-61
2021/09/09 08:43:44;;;;;;;4.60;3.22;;;;;;;30.96;29.69;100518.72;4879214;28;98462;-61
2021/09/09 08:46:11;;;;;;;5.75;3.50;;;;;;;31.37;29.94;100507.78;4878560;28;97859;-63
2021/09/09 08:48:45;;;;;;;5.50;3.20;;;;;;;31.89;29.79;100504.22;4883857;28;97962;-63
2021/09/09 08:51:14;;;;;;;3.90;3.20;;;;;;;32.21;27.97;100504.69;4876163;28;98858;-63
2021/09/09 08:53:40;;;;;;;4.72;3.10;;;;;;;32.78;28.34;100502.44;4878172;28;98092;-61
2021/09/09 08:56:06;;;;;;;3.38;2.80;;;;;;;33.32;27.75;100503.31;4876991;28;123903;-61
2021/09/09 08:58:34;;;;;;;4.75;3.00;;;;;;;33.83;26.74;100506.91;4876673;28;128626;-61
2021/09/09 09:01:27;;;;;;;4.80;3.08;;;;;;;34.65;27.09;100493.41;4878432;28;99313;-63
2021/09/09 09:03:57;;;;;;;4.55;2.63;;;;;;;35.01;26.01;100498.25;4880105;28;98165;-63
2021/09/09 09:06:26;;;;;;;3.93;3.00;;;;;;;35.42;24.97;100487.28;4882691;28;97830;-62
2021/09/09 09:08:59;;;;;;;4.53;2.80;;;;;;;35.84;24.81;100490.28;4882127;28;98400;-63
2021/09/09 09:11:57;;;;;;;4.00;2.63;;;;;;;36.18;24.38;100483.38;4883403;28;104425;-61
2021/09/09 09:14:25;;;;;;;3.97;2.65;;;;;;;36.46;23.42;100490.22;4892811;28;124746;-63
2021/09/09 09:16:54;;;;;;;3.67;2.85;;;;;;;36.58;23.08;100478.25;4881272;28;98619;-61
2021/09/09 09:19:23;;;;;;;3.97;2.88;;;;;;;36.50;23.25;100470.47;4887674;28;104957;-62
2021/09/09 09:21:59;;;;;;;3.20;2.67;;;;;;;36.22;23.93;100480.47;4880536;28;98353;-60
2021/09/09 09:24:32;;;;;;;5.78;2.63;;;;;;;35.82;22.99;100466.72;4893217;28;98737;-61
2021/09/09 09:27:08;;;;;;;4.22;2.90;;;;;;;36.23;23.77;100460.38;4881027;28;98262;-61
2021/09/09 09:29:34;;;;;;;4.03;2.83;;;;;;;37.01;21.94;100467.75;4882715;28;98063;-62
2021/09/09 09:32:17;;;;;;;4.88;3.00;;;;;;;37.93;22.26;100471.59;4880513;28;121700;-62
2021/09/09 09:34:45;;;;;;;3.65;2.65;;;;;;;38.29;20.99;100471.88;4884603;28;98078;-62
2021/09/09 09:37:18;;;;;;;6.65;2.92;;;;;;;39.14;20.64;100469.06;4882320;28;98043;-64
2021/09/09 09:39:45;;;;;;;5.47;2.80;;;;;;;39.55;20.31;100464.19;4887951;28;97669;-61
2021/09/09 09:42:11;;;;;;;3.70;2.60;;;;;;;40.07;19.51;100456.72;4888879;28;98095;-63
2021/09/09 09:44:42;;;;;;;5.05;3.08;;;;;;;40.11;19.08;100455.31;4888195;28;127375;-63
2021/09/09 09:47:20;;;;;;;4.88;2.90;;;;;;;40.37;18.99;100452.16;4884025;28;98324;-61
2021/09/09 09:49:51;;;;;;;6.53;2.80;;;;;;;40.64;18.35;100446.47;4881512;28;98249;-58
2021/09/09 09:52:28;;;;;;;5.90;3.10;;;;;;;41.19;19.03;100448.28;4881073;28;98794;-58
2021/09/09 09:54:56;;;;;;;6.65;2.90;;;;;;;41.39;18.17;100459.75;4879993;28;98686;-58
2021/09/09 09:57:23;;;;;;;3.45;3.05;;;;;;;41.44;17.96;100453.47;4881268;28;98273;-58
2021/09/09 09:59:50;;;;;;;3.22;2.55;;;;;;;41.64;17.87;100449.25;4893180;28;98222;-58
2021/09/09 10:02:16;;;;;;;5.40;2.75;;;;;;;41.99;17.80;100449.44;4880757;28;111922;-58
2021/09/09 10:04:46;;;;;;;3.72;2.90;;;;;;;42.13;17.83;100445.88;4879473;28;128042;-60
2021/09/09 10:07:13;;;;;;;5.10;2.88;;;;;;;42.20;17.41;100444.69;4877234;28;97906;-60
2021/09/09 10:09:40;;;;;;;6.78;5.10;;;;;;;42.44;17.38;100446.66;4880537;28;98004;-58
2021/09/09 10:12:10;;;;;;;3.92;3.10;;;;;;;42.65;17.62;100437.03;4880158;28;121269;-60
2021/09/09 10:14:41;;;;;;;5.45;2.88;;;;;;;42.97;17.35;100435.19;4877991;28;111653;-58
2021/09/09 10:17:07;;;;;;;4.22;2.90;;;;;;;43.04;16.71;100428.34;4891054;28;99846;-62
2021/09/09 10:19:34;;;;;;;3.47;3.00;;;;;;;42.98;17.14;100421.78;4897684;28;98326;-60
2021/09/09 10:22:11;;;;;;;4.82;3.03;;;;;;;42.88;16.95;100421.16;4898956;28;128271;-60
2021/09/09 10:24:42;;;;;;;5.00;2.83;;;;;;;42.70;16.48;100422.16;4884875;28;98086;-60
2021/09/09 10:27:23;;;;;;;;;;;;;;;43.43;16.93;100422.41;4880676;28;98028;-58
2021/09/09 10:30:04;;;;;;;6.53;3.10;;;;;;;42.88;17.57;100410.59;4880094;28;99436;-59
2021/09/09 10:32:30;;;;;;;5.53;3.08;;;;;;;42.79;16.92;100412.75;4879486;28;98745;-58
2021/09/09 10:35:30;;;;;;;4.53;3.00;;;;;;;43.09;17.49;100407.81;4880340;28;98153;-58
2021/09/09 10:37:59;;;;;;;4.47;2.97;;;;;;;42.80;17.05;100411.47;4879384;28;97919;-58
2021/09/09 10:40:29;;;;;;;3.22;2.97;;;;;;;42.61;17.68;100400.38;4878418;28;99041;-58
2021/09/09 10:42:56;;;;;;;3.28;2.78;;;;;;;42.67;16.98;100397.66;4880148;28;98064;-58
2021/09/09 10:45:35;;;;;;;3.22;2.95;;;;;;;42.73;17.35;100395.69;4879046;28;117195;-59
2021/09/09 10:48:01;;;;;;;3.70;2.90;;;;;;;42.15;16.48;100398.03;4880244;28;97769;-58
2021/09/09 10:50:28;;;;;;;4.85;3.10;;;;;;;41.77;17.29;100384.72;4879746;28;98463;-60
2021/09/09 10:53:04;;;;;;;4.10;3.13;;;;;;;41.37;17.25;100383.13;4879613;28;100602;-58
2021/09/09 10:55:31;;;;;;;4.57;3.13;;;;;;;40.54;17.43;100379.94;4880072;28;97885;-58
2021/09/09 10:58:15;;;;;;;4.55;2.95;;;;;;;40.22;17.95;100376.59;4880750;28;98147;-60
2021/09/09 11:00:58;;;;;;;4.03;3.10;;;;;;;39.80;18.72;100370.06;4879869;28;98342;-58
2021/09/09 11:03:36;;;;;;;3.95;3.22;;;;;;;39.38;18.87;100374.31;4879377;28;98551;-60
2021/09/09 11:06:05;;;;;;;3.55;3.25;;;;;;;38.90;18.54;100375.88;4879507;28;98634;-60
2021/09/09 11:08:31;;;;;;;4.30;2.90;;;;;;;38.54;18.98;100378.06;4878072;28;106895;-61
2021/09/09 11:10:57;;;;;;;4.80;2.90;;;;;;;38.45;19.58;100375.22;4879304;28;113308;-59
2021/09/09 11:13:25;;;;;;;3.70;3.08;;;;;;;38.71;19.63;100375.00;4878426;28;126830;-59